Tiempo atmosférico en la estación meteorológica de Planoles, Girona (1149 m.)



Fecha
DESCASC
Temp. máxima en grados centígrados (hora)
DESCASC
Temp. mínima en grados centígrados (hora)
DESCASC
Temp. media en grados centígrados
DESCASC
Racha de viento máxima en m/sg (hora)
DESCASC
Velocidad máxima media en intervalos de 10 minutos(hora)
DESCASC
Precipitaciones diarias en mm
DESCASC
Precipitaciones de 00:00 a 06:00 en mm
DESCASC
Precipitaciones de 06:00 a 12:00 en mm
DESCASC
Precipitaciones de 12:00 a 18:00 en mm
DESCASC
Precipitaciones de 18:00 a 24:00 en mm
DESCASC
08-12-2019 13.1 (14:00) 1.8 (04:50) 7.5 5 (14:30) 2.22 (18:10) 0 0 0 0 0
07-12-2019 13.1 (14:00) 1.4 (04:30) 7.3 4.72 (19:40) 3.06 (19:40) 0 0 0 0 0
06-12-2019 11.2 (13:30) 1.5 (08:00) 6.3 4.72 (02:20) 3.06 (19:30) 0 0 0 0 0
05-12-2019 7.9 (16:30) 3.8 (00:00) 5.9 7.22 (10:40) 3.89 (10:50) 4.4 2.4 1.8 0.2 0
04-12-2019 7.7 (11:30) 2.4 (00:00) 5 12.78 (05:10) 5 (05:50) 11.4 0 0 3.6 7.8
03-12-2019 10.1 (13:20) -1.4 (-00:0) 4.4 6.67 (15:20) 4.17 (19:10) 0 0 0 0 0
02-12-2019 12.3 (14:50) 0.4 (00:00) 6.4 5.83 (12:40) 3.61 (12:40) 0 0 0 0 0
01-12-2019 9.2 (15:10) 4.1 (00:00) 6.6 5.83 (04:30) 2.5 (04:30) 4.6 3.6 0.8 0.2 0
30-11-2019 16.2 (14:40) 1 (00:00) 8.6 11.11 (13:30) 4.72 (15:20) 0 0 0 0 0
29-11-2019 14.1 (13:40) 3.7 (00:00) 8.9 14.17 (01:50) 8.33 (01:50) 0 0 0 0 0
28-11-2019 13.6 (13:20) 3.8 (00:00) 8.7 10.56 (06:40) 5.28 (06:50) 0 0 0 0 0
27-11-2019 13 (13:00) 6.3 (00:00) 9.7 14.72 (00:40) 7.78 (00:40) 0 0 0 0 0
26-11-2019 15.7 (13:50) 1.7 (00:00) 8.7 11.94 (23:59) 5.83 (23:59) 0 0 0 0 0
25-11-2019 14.1 (13:00) 0.6 (00:00) 7.4 6.94 (13:00) 3.61 (13:10) 0 0 0 0 0
24-11-2019 11.4 (14:10) 0.3 (00:00) 5.8 16.39 (02:30) 8.33 (00:10) 0 0 0 0 0
23-11-2019 9.5 (14:00) 3.1 (00:00) 6.3 20.83 (21:20) 8.61 (23:50) 14.6 14.6 0 0 0
22-11-2019 6.8 (20:40) -0.8 (-00:0) 3 15.56 (16:10) 5.28 (15:50) 40.6 0 0.4 6.8 33.4
21-11-2019 9.8 (14:10) -3 (-00:0) 3.4 5 (23:30) 2.5 (13:40) 0 0 0 0 0
20-11-2019 8.1 (15:30) -3.8 (-00:0) 2.2 5.28 (14:30) 2.78 (14:30) 0 0 0 0 0
19-11-2019 10 (13:20) -2.2 (-00:0) 3.9 8.33 (04:50) 5.28 (06:20) 0 0 0 0 0
18-11-2019 9.1 (14:50) -2.4 (-00:0) 3.4 8.61 (16:20) 5 (16:10) 0 0 0 0 0
17-11-2019 8.9 (13:00) -3.3 (-00:0) 2.8 6.94 (10:10) 4.17 (10:10) 0 0 0 0 0
16-11-2019 7.7 (14:00) -4.7 (-00:0) 1.5 8.06 (14:10) 4.44 (14:20) 0 0 0 0 0
15-11-2019 6 (13:20) -4.2 (-00:0) 0.9 8.89 (16:10) 4.72 (13:50) 0 0 0 0 0
14-11-2019 4.4 (12:00) -2.2 (-00:0) 1.1 8.89 (16:50) 3.89 (16:50) 8.6 0 4.6 4 0
13-11-2019 11.6 (14:50) -0.4 (00:00) 5.6 11.39 (14:30) 5.56 (16:00) 0 0 0 0 0
12-11-2019 10.6 (12:20) 2.9 (00:00) 6.8 18.61 (10:50) 7.78 (14:10) 0 0 0 0 0

Gráficas

Temp. máximas Temp. mínimas Temp. medias Precipitaciones Rachas de viento máximas Velocidades máximas media en intervalos de 10 minutos

Datos horarios

Fecha y hora oficial Temperatura (ºC) Velocidad del viento (km/h) Dirección del viento Racha (km/h) Dirección de racha Precipitación (mm) Presión (hPa) Tendencia (hPa) Humedad (%)
2019-12-11 23:00:00 3.1 8 Noroeste 20 Noroeste 0 -- -- 47
2019-12-11 22:00:00 3.2 11 Noroeste 30 Noroeste 0 -- -- 46
2019-12-11 21:00:00 4.5 12 Noroeste 41 Noroeste 0 -- -- 40
2019-12-11 20:00:00 5.4 16 Noroeste 41 Noroeste 0 -- -- 37
2019-12-11 19:00:00 4.7 14 Noroeste 55 Noroeste 0 -- -- 42
2019-12-11 18:00:00 5.8 13 Oeste 41 Sudoeste 0 -- -- 49
2019-12-11 17:00:00 6.2 3 Norte 20 Sudoeste 0 -- -- 62
2019-12-11 16:00:00 7.1 5 Noroeste 22 Noroeste 0 -- -- 56
2019-12-11 15:00:00 8.2 5 Sudeste 13 Este 0 -- -- 44
2019-12-11 14:00:00 9.6 2 Sudoeste 5 Sudoeste 0 -- -- 41
2019-12-11 13:00:00 9.8 0 Calma 6 Este 0 -- -- 39
2019-12-11 12:00:00 10.2 0 Calma 6 Sudeste 0 -- -- 37
2019-12-11 11:00:00 9.2 3 Sudeste 5 Noroeste 0 -- -- 44
2019-12-11 10:00:00 6.5 0 Calma 9 Noroeste 0 -- -- 44
2019-12-11 09:00:00 4.1 4 Noroeste 9 Noroeste 0 -- -- 45
2019-12-11 08:00:00 3.6 0 Calma 10 Oeste 0 -- -- 49
2019-12-11 07:00:00 4.4 4 Noroeste 12 Oeste 0 -- -- 45
2019-12-11 06:00:00 3 3 Oeste 8 Noroeste 0 -- -- 48
2019-12-11 05:00:00 3.2 2 Este 16 Noroeste 0 -- -- 46
2019-12-11 04:00:00 3.1 9 Noroeste 15 Noroeste 0 -- -- 44
2019-12-11 03:00:00 3.2 2 Noroeste 14 Noroeste 0 -- -- 44
2019-12-11 02:00:00 4.5 11 Noroeste 19 Noroeste 0 -- -- 38
2019-12-11 01:00:00 3.9 3 Noroeste 6 Noroeste 0 -- -- 45
2019-12-11 00:00:00 4.3 3 Noroeste 10 Norte 0 -- -- 43
2019-12-10 23:00:00 4.6 6 Noroeste 15 Noroeste 0 -- -- 40
2019-12-10 22:00:00 4.4 8 Noroeste 13 Noroeste 0 -- -- 40
2019-12-10 21:00:00 4.9 3 Sudeste 13 Noroeste 0 -- -- 43
2019-12-10 20:00:00 4 7 Noroeste 13 Oeste 0 -- -- 51
2019-12-10 19:00:00 4.5 3 Oeste 7 Nordeste 0 -- -- 52
2019-12-10 18:00:00 5.7 3 Noroeste 10 Nordeste 0 -- -- 45
2019-12-10 17:00:00 8.2 5 Este 10 Sudeste 0 -- -- 40
2019-12-10 16:00:00 12.5 4 Sudeste 13 Este 0 -- -- 29
2019-12-10 15:00:00 12.3 12 Este 22 Este 0 -- -- 25
2019-12-10 14:00:00 14.1 9 Sur 24 Sudoeste 0 -- -- 18
2019-12-10 13:00:00 13.5 13 Noroeste 56 Noroeste 0 -- -- 20
2019-12-10 12:00:00 12.1 15 Noroeste 44 Noroeste 0 -- -- 20
2019-12-10 11:00:00 11.8 22 Noroeste 59 Noroeste 0 -- -- 19
2019-12-10 10:00:00 9.9 34 Noroeste 60 Oeste 0 -- -- 17
2019-12-10 09:00:00 7.9 32 Noroeste 56 Noroeste 0 -- -- 22
2019-12-10 08:00:00 5.4 30 Noroeste 51 Noroeste 0 -- -- 35
2019-12-10 07:00:00 4.5 30 Noroeste 50 Noroeste 0 -- -- 42
2019-12-10 06:00:00 4 10 Noroeste 37 Noroeste 0 -- -- 45
2019-12-10 05:00:00 4 12 Oeste 39 Oeste 0 -- -- 51
2019-12-10 04:00:00 4 14 Oeste 51 Oeste 0 -- -- 56
2019-12-10 03:00:00 4.2 23 Noroeste 55 Noroeste 0 -- -- 57
2019-12-10 02:00:00 3.6 24 Noroeste 56 Oeste 0 -- -- 64
2019-12-10 01:00:00 3.3 28 Oeste 59 Oeste 0 -- -- 67
2019-12-10 00:00:00 2.7 28 Oeste 55 Sudoeste 0.4 -- -- 78
2019-12-09 23:00:00 2.3 26 Oeste 44 Oeste 0.6 -- -- 82
2019-12-09 22:00:00 2.5 20 Noroeste 35 Oeste 0 -- -- 80
2019-12-09 21:00:00 2.9 16 Oeste 40 Noroeste 0.2 -- -- 74
2019-12-09 20:00:00 2.9 21 Oeste 47 Oeste 0.6 -- -- 81
2019-12-09 19:00:00 2.2 10 Noroeste 37 Oeste 0.6 -- -- 88
2019-12-09 18:00:00 3 9 Oeste 24 Noroeste 0.2 -- -- 83
2019-12-09 17:00:00 4.2 6 Oeste 37 Noroeste 0 -- -- 74
2019-12-09 16:00:00 7.4 19 Noroeste 47 Oeste 0 -- -- 51
2019-12-09 15:00:00 9.2 15 Noroeste 57 Oeste 0 -- -- 41
2019-12-09 14:00:00 9.2 14 Noroeste 67 Oeste 0 -- -- 46
2019-12-09 13:00:00 9.1 20 Noroeste 55 Oeste 0 -- -- 44
2019-12-09 12:00:00 9.5 28 Noroeste 54 Noroeste 0 -- -- 47
2019-12-09 11:00:00 8.7 23 Noroeste 64 Oeste 0 -- -- 47
2019-12-09 10:00:00 9.1 6 Oeste 27 Oeste 0 -- -- 42
2019-12-09 09:00:00 5.4 14 Oeste 28 Oeste 0 -- -- 48
2019-12-09 08:00:00 1.3 4 Este 15 Sudoeste 0 -- -- 68
2019-12-09 07:00:00 3.3 9 Oeste 25 Noroeste 0 -- -- 51
2019-12-09 06:00:00 0.5 0 Calma 5 Oeste 0 -- -- 69
2019-12-09 05:00:00 1 3 Nordeste 7 Nordeste 0 -- -- 69
2019-12-09 04:00:00 1.8 2 Noroeste 5 Noroeste 0 -- -- 68
2019-12-09 03:00:00 2.4 3 Norte 5 Oeste 0 -- -- 75
2019-12-09 02:00:00 3.1 3 Nordeste 9 Noroeste 0 -- -- 85
2019-12-09 01:00:00 4.3 4 Noroeste 7 Norte 0 -- -- 90
2019-12-09 00:00:00 5.2 2 Sudoeste 12 Noroeste 0 -- -- 90
2019-12-08 23:00:00 5.4 0 Calma 13 Este 0 -- -- 89
2019-12-08 22:00:00 5.1 4 Este 16 Oeste 0 -- -- 90
2019-12-08 21:00:00 4.9 4 Oeste 9 Oeste 0 -- -- 89
2019-12-08 20:00:00 5.2 0 Calma 15 Noroeste 0 -- -- 82
2019-12-08 19:00:00 4.9 3 Noroeste 14 Noroeste 0 -- -- 83
2019-12-08 18:00:00 6.1 3 Noroeste 10 Noroeste 0 -- -- 80
2019-12-08 17:00:00 8.3 3 Noroeste 6 Sudeste 0 -- -- 73
2019-12-08 16:00:00 11.4 3 Sudeste 13 Este 0 -- -- 62
2019-12-08 15:00:00 12.6 5 Sudeste 18 Sudeste 0 -- -- 59
2019-12-08 14:00:00 13.1 5 Sudeste 15 Sudeste 0 -- -- 59
2019-12-08 13:00:00 12.6 5 Sudeste 12 Este 0 -- -- 56
2019-12-08 12:00:00 11.6 4 Sudeste 8 Sudeste 0 -- -- 52
2019-12-08 11:00:00 9 0 Calma 5 Sudeste 0 -- -- 62
2019-12-08 10:00:00 6.9 4 Sudeste 9 Noroeste 0 -- -- 66
2019-12-08 09:00:00 3.5 3 Noroeste 12 Noroeste 0 -- -- 74
2019-12-08 08:00:00 2.3 3 Oeste 7 Noroeste 0 -- -- 76
2019-12-08 07:00:00 2.3 2 Oeste 11 Noroeste 0 -- -- 79
2019-12-08 06:00:00 2 5 Noroeste 8 Noroeste 0 -- -- 80
2019-12-08 05:00:00 2 3 Noroeste 7 Noroeste 0 -- -- 83
2019-12-08 04:00:00 2.2 3 Norte 8 Norte 0 -- -- 82
2019-12-08 03:00:00 2 3 Noroeste 9 Noroeste 0 -- -- 83
2019-12-08 02:00:00 2 5 Noroeste 9 Noroeste 0 -- -- 84
2019-12-08 01:00:00 2.2 2 Oeste 6 Noroeste 0 -- -- 84
2019-12-08 00:00:00 2.4 3 Noroeste 9 Oeste 0 -- -- 84
2019-12-07 23:00:00 2.9 3 Oeste 14 Noroeste 0 -- -- 81
2019-12-07 22:00:00 3.1 0 Calma 11 Noroeste 0 -- -- 81
2019-12-07 21:00:00 3.6 4 Noroeste 16 Noroeste 0 -- -- 79
2019-12-07 20:00:00 4.4 9 Noroeste 17 Noroeste 0 -- -- 80
2019-12-07 19:00:00 4.7 5 Oeste 10 Noroeste 0 -- -- 83
2019-12-07 18:00:00 6.2 4 Noroeste 9 Noroeste 0 -- -- 79
2019-12-07 17:00:00 8.6 0 Calma 6 Noroeste 0 -- -- 72
2019-12-07 16:00:00 12.5 3 Sudeste 9 Este 0 -- -- 60
2019-12-07 15:00:00 12.9 4 Sudeste 12 Sur 0 -- -- 59
2019-12-07 14:00:00 13.1 6 Sudeste 12 Este 0 -- -- 58
2019-12-07 13:00:00 12.2 5 Sudeste 12 Sudeste 0 -- -- 56
2019-12-07 12:00:00 11.8 3 Sudoeste 5 Sudeste 0 -- -- 53
2019-12-07 11:00:00 9.3 0 Calma 4 Sudoeste 0 -- -- 64
2019-12-07 10:00:00 5.9 0 Calma 12 Oeste 0 -- -- 73
2019-12-07 09:00:00 2.9 6 Noroeste 14 Noroeste 0 -- -- 79
2019-12-07 08:00:00 2.2 9 Noroeste 15 Oeste 0 -- -- 81
2019-12-07 07:00:00 2.1 8 Noroeste 13 Noroeste 0 -- -- 81
2019-12-07 06:00:00 1.9 4 Noroeste 15 Noroeste 0 -- -- 82
2019-12-07 05:00:00 2.3 8 Noroeste 16 Noroeste 0 -- -- 83
2019-12-07 04:00:00 1.8 0 Calma 9 Noroeste 0 -- -- 87
2019-12-07 03:00:00 2.3 4 Noroeste 14 Noroeste 0 -- -- 86
2019-12-07 02:00:00 1.8 4 Noroeste 9 Noroeste 0 -- -- 89
2019-12-07 01:00:00 1.8 2 Sudoeste 6 Oeste 0 -- -- 89
2019-12-07 00:00:00 2 4 Noroeste 6 Noroeste 0 -- -- 89
2019-12-06 23:00:00 2.3 3 Oeste 8 Noroeste 0 -- -- 90
2019-12-06 22:00:00 2.4 2 Noroeste 9 Noroeste 0 -- -- 88
2019-12-06 21:00:00 2.9 3 Oeste 13 Noroeste 0 -- -- 88
2019-12-06 20:00:00 3.8 7 Noroeste 14 Noroeste 0 -- -- 87
2019-12-06 19:00:00 4.9 8 Noroeste 14 Noroeste 0 -- -- 85
2019-12-06 18:00:00 5.1 3 Noroeste 9 Noroeste 0 -- -- 87
2019-12-06 17:00:00 6.5 0 Calma 6 Noroeste 0 -- -- 84
2019-12-06 16:00:00 8.4 0 Calma 5 Noroeste 0 -- -- 77
2019-12-06 15:00:00 10.3 3 Sudoeste 9 Sur 0 -- -- 72
2019-12-06 14:00:00 9.9 4 Sudeste 12 Sudeste 0 -- -- 73
2019-12-06 13:00:00 10.6 5 Sudeste 10 Sudeste 0 -- -- 68
2019-12-06 12:00:00 8.7 3 Sudeste 5 Sudeste 0 -- -- 72
2019-12-06 11:00:00 8 2 Sudoeste 4 Sudeste 0 -- -- 73
2019-12-06 10:00:00 5.8 0 Calma 4 Sudoeste 0 -- -- 78
2019-12-06 09:00:00 2.8 3 Sudoeste 10 Noroeste 0 -- -- 89
2019-12-06 08:00:00 1.5 4 Noroeste 9 Noroeste 0 -- -- 92
2019-12-06 07:00:00 2.6 4 Oeste 12 Noroeste 0 -- -- 88
2019-12-06 06:00:00 3 3 Noroeste 12 Noroeste 0 -- -- 89
2019-12-06 05:00:00 2.1 0 Calma 4 Oeste 0 -- -- 94
2019-12-06 04:00:00 2 0 Calma 3 Sudoeste 0 -- -- 94
2019-12-06 03:00:00 2.5 0 Calma 17 Noroeste 0 -- -- 90
2019-12-06 02:00:00 2.7 9 Noroeste 14 Noroeste 0 -- -- 91
2019-12-06 01:00:00 2.9 3 Noroeste 14 Noroeste 0 -- -- 90
2019-12-06 00:00:00 3.9 10 Noroeste 14 Noroeste 0 -- -- 88
2019-12-05 23:00:00 4.2 5 Noroeste 12 Noroeste 0 -- -- 90
2019-12-05 22:00:00 5 6 Noroeste 14 Oeste 0 -- -- 88
2019-12-05 21:00:00 4.7 6 Noroeste 14 Noroeste 0 -- -- 90
2019-12-05 20:00:00 4.4 8 Noroeste 15 Noroeste 0 -- -- 90
2019-12-05 19:00:00 4.4 3 Noroeste 12 Noroeste 0 -- -- 91
2019-12-05 18:00:00 5.8 3 Sudoeste 11 Noroeste 0 -- -- 89
2019-12-05 17:00:00 7.8 0 Calma 6 Sudoeste 0 -- -- 88
2019-12-05 16:00:00 7.7 3 Oeste 19 Noroeste 0 -- -- 88
2019-12-05 15:00:00 7 9 Noroeste 14 Oeste 0 -- -- 83
2019-12-05 14:00:00 6.4 7 Noroeste 17 Oeste 0 -- -- 82
2019-12-05 13:00:00 5.7 12 Noroeste 24 Oeste 0.2 -- -- 82
2019-12-05 12:00:00 6.8 13 Noroeste 24 Noroeste 0 -- -- 77
2019-12-05 11:00:00 5.9 11 Oeste 26 Noroeste 0 -- -- 84
2019-12-05 10:00:00 5.4 6 Noroeste 14 Oeste 0.2 -- -- 91
2019-12-05 09:00:00 5.2 6 Oeste 19 Noroeste 0 -- -- 92
2019-12-05 08:00:00 5.3 10 Noroeste 18 Noroeste 1 -- -- 93
2019-12-05 07:00:00 5.2 8 Noroeste 18 Oeste 0.6 -- -- 95
2019-12-05 06:00:00 5.3 9 Noroeste 18 Oeste 0.8 -- -- 94
2019-12-05 05:00:00 5.5 6 Noroeste 12 Oeste 0.6 -- -- 94
2019-12-05 04:00:00 5.4 3 Norte 11 Nordeste 0.2 -- -- 94
2019-12-05 03:00:00 5.5 5 Nordeste 14 Oeste 0.2 -- -- 92
2019-12-05 02:00:00 5 5 Noroeste 14 Norte 0.2 -- -- 94
2019-12-05 01:00:00 4.6 6 Noroeste 14 Oeste 0.4 -- -- 94
2019-12-05 00:00:00 4.7 8 Noroeste 14 Noroeste 1.4 -- -- 95
2019-12-04 23:00:00 5 4 Norte 9 Noroeste 1.6 -- -- 92
2019-12-04 22:00:00 5.4 2 Norte 23 Oeste 1.4 -- -- 90
2019-12-04 21:00:00 5.5 4 Noroeste 9 Noroeste 1.2 -- -- 92
2019-12-04 20:00:00 5.7 6 Noroeste 13 Noroeste 0.6 -- -- 91
2019-12-04 19:00:00 5.1 7 Noroeste 19 Oeste 1.6 -- -- 93
2019-12-04 18:00:00 5.1 5 Norte 12 Este 0.8 -- -- 90
2019-12-04 17:00:00 5.5 6 Este 23 Sur 2 -- -- 89
2019-12-04 16:00:00 6.8 11 Sudeste 28 Sudeste 0.4 -- -- 83
2019-12-04 15:00:00 6.5 4 Sudeste 19 Sur 0.4 -- -- 84
2019-12-04 14:00:00 7.1 8 Sudeste 24 Sudeste 0 -- -- 82
2019-12-04 13:00:00 7.1 8 Sudeste 22 Sudeste 0 -- -- 82
2019-12-04 12:00:00 7.6 5 Sudeste 20 Sudeste 0 -- -- 76
2019-12-04 11:00:00 7.1 8 Sudeste 15 Sudeste 0 -- -- 79
2019-12-04 10:00:00 6.5 4 Este 10 Este 0 -- -- 80
2019-12-04 09:00:00 6 3 Este 19 Este 0 -- -- 83
2019-12-04 08:00:00 7 9 Este 30 Este 0 -- -- 75
2019-12-04 07:00:00 7.4 17 Este 44 Este 0 -- -- 69
2019-12-04 06:00:00 7.3 17 Sudeste 46 Este 0 -- -- 68
2019-12-04 05:00:00 6.7 17 Sudeste 36 Sudeste 0 -- -- 68
2019-12-04 04:00:00 3.5 3 Noroeste 20 Noroeste 0 -- -- 79
2019-12-04 03:00:00 3.1 8 Oeste 18 Noroeste 0 -- -- 82
2019-12-04 02:00:00 2.8 5 Noroeste 16 Noroeste 0 -- -- 84
2019-12-04 01:00:00 2.6 4 Norte 14 Noroeste 0 -- -- 83
2019-12-04 00:00:00 2.4 5 Noroeste 15 Oeste 0 -- -- 81
2019-12-03 23:00:00 2 8 Noroeste 15 Noroeste 0 -- -- 80
2019-12-03 22:00:00 2.1 10 Noroeste 18 Noroeste 0 -- -- 77
2019-12-03 21:00:00 2.1 13 Noroeste 18 Noroeste 0 -- -- 76
2019-12-03 20:00:00 2.1 8 Noroeste 19 Noroeste 0 -- -- 77
2019-12-03 19:00:00 2.7 10 Noroeste 17 Noroeste 0 -- -- 76
2019-12-03 18:00:00 3.3 6 Noroeste 17 Noroeste 0 -- -- 75
2019-12-03 17:00:00 5.7 3 Noroeste 14 Este 0 -- -- 65
2019-12-03 16:00:00 7.1 5 Sudeste 24 Este 0 -- -- 60
2019-12-03 15:00:00 9.5 7 Sudeste 20 Sudeste 0 -- -- 53
2019-12-03 14:00:00 10 6 Sudeste 20 Este 0 -- -- 47
2019-12-03 13:00:00 9.9 7 Sudeste 22 Este 0 -- -- 43
2019-12-03 12:00:00 8.9 4 Este 12 Este 0 -- -- 46
2019-12-03 11:00:00 7 3 Sudeste 6 Sudeste 0 -- -- 51
2019-12-03 10:00:00 3.8 3 Noroeste 6 Sudoeste 0 -- -- 57
2019-12-03 09:00:00 -0.1 2 Noroeste 5 Noroeste 0 -- -- 66
2019-12-03 08:00:00 -1.4 2 Noroeste 6 Noroeste 0 -- -- 67
2019-12-03 07:00:00 -1.2 0 Calma 4 Oeste 0 -- -- 68
2019-12-03 06:00:00 -0.9 0 Calma 9 Noroeste 0 -- -- 68
2019-12-03 05:00:00 -0.4 4 Noroeste 8 Noroeste 0 -- -- 64
2019-12-03 04:00:00 -0.5 0 Calma 5 Norte 0 -- -- 68
2019-12-03 03:00:00 -0.3 2 Sudeste 7 Noroeste 0 -- -- 71
2019-12-03 02:00:00 -0.2 3 Noroeste 8 Noroeste 0 -- -- 72
2019-12-03 01:00:00 0 0 Calma 7 Noroeste 0 -- -- 75
2019-12-03 00:00:00 1.1 0 Calma 9 Noroeste 0 -- -- 71
2019-12-02 23:00:00 1.2 5 Oeste 9 Noroeste 0 -- -- 72
2019-12-02 22:00:00 2 2 Este 10 Norte 0 -- -- 72
2019-12-02 21:00:00 2.2 6 Noroeste 11 Oeste 0 -- -- 70
2019-12-02 20:00:00 2.2 5 Oeste 12 Oeste 0 -- -- 73
2019-12-02 19:00:00 2.9 4 Noroeste 12 Noroeste 0 -- -- 75
2019-12-02 18:00:00 4.2 2 Noroeste 12 Noroeste 0 -- -- 70
2019-12-02 17:00:00 6.5 3 Noroeste 9 Este 0 -- -- 66
2019-12-02 16:00:00 10.5 5 Este 9 Este 0 -- -- 54
2019-12-02 15:00:00 12 3 Sur 13 Oeste 0 -- -- 43
2019-12-02 14:00:00 11.7 7 Oeste 17 Oeste 0 -- -- 44
2019-12-02 13:00:00 10.6 10 Oeste 21 Oeste 0 -- -- 49
2019-12-02 12:00:00 10.4 3 Sur 13 Oeste 0 -- -- 52
2019-12-02 11:00:00 7.9 2 Sudoeste 5 Noroeste 0 -- -- 59
2019-12-02 10:00:00 4.8 4 Sudeste 8 Este 0 -- -- 67
2019-12-02 09:00:00 2.1 0 Calma 11 Oeste 0 -- -- 77
2019-12-02 08:00:00 0.6 3 Noroeste 9 Noroeste 0 -- -- 79
2019-12-02 07:00:00 0.7 5 Noroeste 9 Noroeste 0 -- -- 81
2019-12-02 06:00:00 0.8 5 Noroeste 10 Noroeste 0 -- -- 83
2019-12-02 05:00:00 1.3 4 Noroeste 10 Norte 0 -- -- 81
2019-12-02 04:00:00 0.9 4 Oeste 9 Noroeste 0 -- -- 87
2019-12-02 03:00:00 1.2 4 Noroeste 9 Oeste 0 -- -- 89
2019-12-02 02:00:00 2.1 4 Noroeste 9 Norte 0 -- -- 88
2019-12-02 01:00:00 3.1 3 Noroeste 10 Noroeste 0 -- -- 87
2019-12-02 00:00:00 4.1 0 Calma 6 Noroeste 0 -- -- 95
2019-12-01 23:00:00 4.6 0 Calma 5 Noroeste 0 -- -- 95
2019-12-01 22:00:00 5 2 Sudeste 6 Este 0 -- -- 95
2019-12-01 21:00:00 5 3 Este 7 Nordeste 0 -- -- 96
2019-12-01 20:00:00 5.1 0 Calma 6 Sudeste 0 -- -- 95
2019-12-01 19:00:00 5 0 Calma 6 Noroeste 0 -- -- 93
2019-12-01 18:00:00 5.3 0 Calma 5 Sudeste 0 -- -- 94
2019-12-01 17:00:00 6.1 3 Oeste 6 Oeste 0 -- -- 91
2019-12-01 16:00:00 8.1 4 Oeste 8 Oeste 0 -- -- 84
2019-12-01 15:00:00 8.8 3 Sudeste 12 Este 0 -- -- 81
2019-12-01 14:00:00 8.7 4 Sudeste 12 Este 0 -- -- 83
2019-12-01 13:00:00 7.9 3 Sudeste 11 Este 0.2 -- -- 87
2019-12-01 12:00:00 7.1 2 Este 6 Sudoeste 0.4 -- -- 93
2019-12-01 11:00:00 6.1 2 Sudeste 7 Oeste 0.4 -- -- 93
2019-12-01 10:00:00 5.5 2 Nordeste 10 Oeste 0 -- -- 94
2019-12-01 09:00:00 4.2 2 Oeste 11 Noroeste 0 -- -- 95
2019-12-01 08:00:00 4.2 5 Noroeste 15 Noroeste 0 -- -- 95
2019-12-01 07:00:00 4.7 7 Noroeste 11 Norte 0 -- -- 95
2019-12-01 06:00:00 5.6 3 Este 7 Este 0.2 -- -- 94
2019-12-01 05:00:00 6 4 Noroeste 21 Sudoeste 1.4 -- -- 89
2019-12-01 04:00:00 7.2 0 Calma 10 Este 0.4 -- -- 97
2019-12-01 03:00:00 7.3 4 Sudeste 17 Este 0 -- -- 97
2019-12-01 02:00:00 7.1 5 Este 10 Oeste 0.2 -- -- 97
2019-12-01 01:00:00 6.7 3 Norte 9 Nordeste 1.4 -- -- 96
2019-12-01 00:00:00 6.7 4 Nordeste 8 Sudeste 0 -- -- 93
2019-11-30 23:00:00 6.3 2 Noroeste 8 Este 0 -- -- 90
2019-11-30 22:00:00 6.2 0 Calma 9 Norte 0 -- -- 89
2019-11-30 21:00:00 5.8 0 Calma 6 Oeste 0 -- -- 89
2019-11-30 20:00:00 6 3 Noroeste 13 Noroeste 0 -- -- 86
2019-11-30 19:00:00 6.7 3 Noroeste 8 Noroeste 0 -- -- 83
2019-11-30 18:00:00 8.5 3 Noroeste 6 Noroeste 0 -- -- 79
2019-11-30 17:00:00 10.4 0 Calma 16 Sudeste 0 -- -- 73
2019-11-30 16:00:00 12.6 7 Sudeste 26 Este 0 -- -- 64
2019-11-30 15:00:00 14.8 10 Sudeste 28 Oeste 0 -- -- 56
2019-11-30 14:00:00 15.9 12 Oeste 40 Oeste 0 -- -- 47
2019-11-30 13:00:00 14.7 7 Sudeste 30 Noroeste 0 -- -- 47
2019-11-30 12:00:00 11.2 9 Este 16 Este 0 -- -- 61
2019-11-30 11:00:00 9 4 Sudeste 10 Este 0 -- -- 65
2019-11-30 10:00:00 6.3 3 Este 7 Este 0 -- -- 73
2019-11-30 09:00:00 3.5 4 Noroeste 7 Norte 0 -- -- 85
2019-11-30 08:00:00 1.3 3 Este 7 Este 0 -- -- 91
2019-11-30 07:00:00 1.1 2 Noroeste 5 Noroeste 0 -- -- 92
2019-11-30 06:00:00 1.4 3 Noroeste 8 Noroeste 0 -- -- 92
2019-11-30 05:00:00 2.2 3 Norte 9 Noroeste 0 -- -- 88
2019-11-30 04:00:00 2.3 4 Noroeste 8 Noroeste 0 -- -- 88
2019-11-30 03:00:00 3 0 Calma 16 Noroeste 0 -- -- 88
2019-11-30 02:00:00 3.3 6 Noroeste 16 Noroeste 0 -- -- 86
2019-11-30 01:00:00 3.9 12 Noroeste 19 Noroeste 0 -- -- 85
2019-11-30 00:00:00 4.4 8 Noroeste 16 Noroeste 0 -- -- 84
2019-11-29 23:00:00 4.5 8 Noroeste 17 Noroeste 0 -- -- 85
2019-11-29 22:00:00 4.3 5 Oeste 15 Oeste 0 -- -- 87
2019-11-29 21:00:00 4.9 7 Noroeste 15 Oeste 0 -- -- 86
2019-11-29 20:00:00 5.9 6 Noroeste 17 Noroeste 0 -- -- 84
2019-11-29 19:00:00 5.9 5 Noroeste 10 Noroeste 0 -- -- 87
2019-11-29 18:00:00 7 3 Noroeste 12 Noroeste 0 -- -- 84
2019-11-29 17:00:00 8.7 3 Noroeste 15 Este 0 -- -- 80
2019-11-29 16:00:00 10.3 8 Este 25 Este 0 -- -- 75
2019-11-29 15:00:00 12.9 14 Este 28 Este 0 -- -- 65
2019-11-29 14:00:00 13.6 14 Este 26 Este 0 -- -- 62
2019-11-29 13:00:00 13.5 7 Este 23 Nordeste 0 -- -- 56
2019-11-29 12:00:00 12.6 8 Sudeste 21 Este 0 -- -- 63
2019-11-29 11:00:00 11 5 Sudeste 14 Este 0 -- -- 64
2019-11-29 10:00:00 8.9 5 Noroeste 15 Oeste 0 -- -- 72
2019-11-29 09:00:00 4.9 4 Este 7 Sudeste 0 -- -- 87
2019-11-29 08:00:00 4 0 Calma 5 Noroeste 0 -- -- 87
2019-11-29 07:00:00 4 0 Calma 5 Este 0 -- -- 88
2019-11-29 06:00:00 4.5 3 Noroeste 9 Noroeste 0 -- -- 87
2019-11-29 05:00:00 4.2 0 Calma 7 Noroeste 0 -- -- 90
2019-11-29 04:00:00 4.7 4 Sudoeste 14 Este 0 -- -- 89
2019-11-29 03:00:00 6.1 8 Este 45 Sudoeste 0 -- -- 84
2019-11-29 02:00:00 8.6 28 Sudoeste 51 Sudoeste 0 -- -- 72
2019-11-29 01:00:00 7.2 9 Oeste 21 Oeste 0 -- -- 78
2019-11-29 00:00:00 6.1 5 Este 9 Este 0 -- -- 87
2019-11-28 23:00:00 6.4 0 Calma 9 Este 0 -- -- 84
2019-11-28 22:00:00 6.7 4 Este 8 Este 0 -- -- 79
2019-11-28 21:00:00 6.8 3 Este 7 Noroeste 0 -- -- 77
2019-11-28 20:00:00 6.8 3 Nordeste 10 Noroeste 0 -- -- 76
2019-11-28 19:00:00 7.8 3 Norte 13 Noroeste 0 -- -- 73
2019-11-28 18:00:00 7.8 6 Noroeste 15 Oeste 0 -- -- 80
2019-11-28 17:00:00 8.4 3 Noroeste 11 Oeste 0 -- -- 77
2019-11-28 16:00:00 9.6 4 Sudeste 14 Este 0 -- -- 72
2019-11-28 15:00:00 11.7 9 Este 28 Este 0 -- -- 64
2019-11-28 14:00:00 12.5 14 Este 25 Sudeste 0 -- -- 61
2019-11-28 13:00:00 12.5 9 Oeste 25 Sudoeste 0 -- -- 47
2019-11-28 12:00:00 10.2 9 Noroeste 27 Sudoeste 0 -- -- 57
2019-11-28 11:00:00 9.4 15 Sudoeste 31 Sudoeste 0 -- -- 61
2019-11-28 10:00:00 8.7 12 Sudoeste 27 Oeste 0 -- -- 62
2019-11-28 09:00:00 6.7 7 Sur 23 Sudoeste 0 -- -- 69
2019-11-28 08:00:00 5.8 6 Norte 37 Sudoeste 0 -- -- 73
2019-11-28 07:00:00 6.2 13 Oeste 38 Oeste 0 -- -- 71
2019-11-28 06:00:00 5.9 5 Sudeste 28 Noroeste 0 -- -- 73
2019-11-28 05:00:00 3.8 3 Sudeste 18 Oeste 0 -- -- 83
2019-11-28 04:00:00 5 5 Norte 12 Este 0 -- -- 78
2019-11-28 03:00:00 6.3 4 Nordeste 29 Oeste 0 -- -- 74
2019-11-28 02:00:00 7.1 12 Oeste 29 Oeste 0 -- -- 70
2019-11-28 01:00:00 7.3 11 Oeste 36 Oeste 0 -- -- 70
2019-11-28 00:00:00 7.7 9 Noroeste 35 Oeste 0 -- -- 66
2019-11-27 23:00:00 7.1 13 Oeste 29 Noroeste 0 -- -- 69
2019-11-27 22:00:00 6.6 11 Este 18 Este 0 -- -- 88
2019-11-27 21:00:00 8.3 11 Oeste 29 Noroeste 0 -- -- 66
2019-11-27 20:00:00 7.1 3 Norte 9 Este 0 -- -- 85
2019-11-27 19:00:00 7.6 3 Norte 8 Sudeste 0 -- -- 85
2019-11-27 18:00:00 8.5 3 Este 12 Este 0 -- -- 79
2019-11-27 17:00:00 9.3 0 Calma 14 Este 0 -- -- 77
2019-11-27 16:00:00 10.1 6 Este 22 Este 0 -- -- 74
2019-11-27 15:00:00 10.4 7 Este 25 Este 0 -- -- 74
2019-11-27 14:00:00 11.4 13 Este 24 Este 0 -- -- 72
2019-11-27 06:00:00 9.3 12 Oeste 24 Oeste 0 -- -- 72
2019-11-27 05:00:00 9.7 8 Noroeste 33 Oeste 0 -- -- 75
2019-11-27 04:00:00 11 21 Oeste 37 Oeste 0 -- -- 70
2019-11-27 03:00:00 11.9 13 Oeste 43 Noroeste 0 -- -- 69
2019-11-27 02:00:00 11.9 12 Oeste 42 Oeste 0 -- -- 68
2019-11-27 01:00:00 12.4 19 Oeste 53 Oeste 0 -- -- 68
2019-11-27 00:00:00 12.1 21 Oeste 43 Oeste 0 -- -- 72
2019-11-26 23:00:00 5.9 4 Norte 21 Oeste 0 -- -- 90
2019-11-26 22:00:00 5.7 2 Norte 6 Sudoeste 0 -- -- 91
2019-11-26 21:00:00 5.4 2 Noroeste 6 Nordeste 0 -- -- 89
2019-11-26 20:00:00 5.8 4 Noroeste 6 Noroeste 0 -- -- 89
2019-11-26 19:00:00 7 3 Norte 6 Noroeste 0 -- -- 85
2019-11-26 18:00:00 8.3 0 Calma 6 Este 0 -- -- 78
2019-11-26 17:00:00 10.5 3 Nordeste 11 Este 0 -- -- 72
2019-11-26 16:00:00 12.8 5 Este 10 Este 0 -- -- 62
2019-11-26 15:00:00 14.7 4 Sudeste 14 Este 0 -- -- 48
2019-11-26 14:00:00 15.7 6 Este 14 Este 0 -- -- 48
2019-11-26 13:00:00 14.7 4 Sudeste 13 Este 0 -- -- 46
2019-11-26 12:00:00 12.6 6 Este 13 Sudeste 0 -- -- 53
2019-11-26 11:00:00 9.1 2 Sudeste 4 Noroeste 0 -- -- 66
2019-11-26 10:00:00 6.6 3 Este 6 Este 0 -- -- 73
2019-11-26 09:00:00 4.1 2 Norte 9 Norte 0 -- -- 78
2019-11-26 08:00:00 1.9 2 Sudeste 11 Norte 0 -- -- 84
2019-11-26 07:00:00 2.1 5 Norte 10 Norte 0 -- -- 84
2019-11-26 06:00:00 2 2 Norte 10 Norte 0 -- -- 86
2019-11-26 05:00:00 1.9 0 Calma 6 Noroeste 0 -- -- 87
2019-11-26 04:00:00 2.2 4 Noroeste 6 Noroeste 0 -- -- 85
2019-11-26 03:00:00 3 4 Nordeste 10 Noroeste 0 -- -- 81
2019-11-26 02:00:00 2.3 2 Nordeste 6 Noroeste 0 -- -- 82
2019-11-26 01:00:00 2.6 0 Calma 13 Noroeste 0 -- -- 80
2019-11-26 00:00:00 2.8 9 Noroeste 15 Noroeste 0 -- -- 80
2019-11-25 23:00:00 3 2 Oeste 9 Noroeste 0 -- -- 77
2019-11-25 22:00:00 3.5 2 Oeste 12 Noroeste 0 -- -- 74
2019-11-25 21:00:00 4.1 7 Noroeste 13 Noroeste 0 -- -- 71
2019-11-25 20:00:00 4.9 10 Noroeste 17 Noroeste 0 -- -- 69
2019-11-25 19:00:00 5.6 9 Noroeste 15 Noroeste 0 -- -- 68
2019-11-25 18:00:00 7 3 Oeste 8 Noroeste 0 -- -- 63
2019-11-25 17:00:00 9.4 0 Calma 9 Este 0 -- -- 58
2019-11-25 16:00:00 12.3 6 Sudeste 18 Este 0 -- -- 47
2019-11-25 15:00:00 12.8 6 Sudeste 21 Este 0 -- -- 43
2019-11-25 14:00:00 13.8 12 Este 24 Este 0 -- -- 39
2019-11-25 13:00:00 14.1 10 Sudeste 25 Este 0 -- -- 42
2019-11-25 12:00:00 12.5 4 Sudeste 10 Sudeste 0 -- -- 44
2019-11-25 11:00:00 10.6 5 Sudeste 8 Sudeste 0 -- -- 49
2019-11-25 10:00:00 7.8 0 Calma 5 Sudoeste 0 -- -- 60
2019-11-25 09:00:00 4 0 Calma 9 Este 0 -- -- 72
2019-11-25 08:00:00 2.3 2 Norte 9 Noroeste 0 -- -- 75
2019-11-25 07:00:00 2.8 3 Norte 11 Noroeste 0 -- -- 71
2019-11-25 06:00:00 2.4 4 Norte 10 Noroeste 0 -- -- 69
2019-11-25 05:00:00 2.2 5 Nordeste 13 Este 0 -- -- 69
2019-11-25 04:00:00 2.5 6 Este 13 Nordeste 0 -- -- 64
2019-11-25 03:00:00 2.4 3 Oeste 9 Sudeste 0 -- -- 66
2019-11-25 02:00:00 2.3 5 Noroeste 8 Este 0 -- -- 65
2019-11-25 01:00:00 1.3 4 Este 10 Noroeste 0 -- -- 69
2019-11-25 00:00:00 0.6 3 Noroeste 6 Este 0 -- -- 70
2019-11-24 23:00:00 0.6 3 Este 12 Noroeste 0 -- -- 69
2019-11-24 22:00:00 1 6 Noroeste 9 Noroeste 0 -- -- 66
2019-11-24 21:00:00 1.5 4 Noroeste 13 Noroeste 0 -- -- 69
2019-11-24 20:00:00 2.1 6 Noroeste 12 Noroeste 0 -- -- 68
2019-11-24 19:00:00 3.4 4 Noroeste 8 Noroeste 0 -- -- 62
2019-11-24 18:00:00 5.2 3 Noroeste 8 Norte 0 -- -- 56
2019-11-24 17:00:00 7.7 3 Norte 34 Sudoeste 0 -- -- 48
2019-11-24 16:00:00 10.4 13 Sudoeste 40 Oeste 0 -- -- 41
2019-11-24 15:00:00 11.2 14 Oeste 41 Noroeste 0 -- -- 40
2019-11-24 14:00:00 11.2 13 Sudoeste 40 Oeste 0 -- -- 39
2019-11-24 13:00:00 10.9 15 Oeste 42 Sudoeste 0 -- -- 39
2019-11-24 12:00:00 10.3 19 Oeste 39 Oeste 0 -- -- 39
2019-11-24 11:00:00 10.2 7 Oeste 33 Oeste 0 -- -- 35
2019-11-24 10:00:00 7.8 23 Oeste 46 Oeste 0 -- -- 41
2019-11-24 09:00:00 6.6 14 Oeste 39 Sudoeste 0 -- -- 47
2019-11-24 08:00:00 6.2 19 Oeste 48 Noroeste 0 -- -- 47
2019-11-24 07:00:00 6.7 24 Oeste 51 Sudoeste 0 -- -- 45
2019-11-24 06:00:00 6.3 13 Oeste 34 Sudoeste 0 -- -- 46
2019-11-24 05:00:00 6.5 10 Oeste 32 Sudoeste 0 -- -- 44
2019-11-24 04:00:00 7.1 12 Oeste 50 Sudoeste 0 -- -- 44
2019-11-24 03:00:00 6.7 21 Sudoeste 59 Oeste 0 -- -- 41
2019-11-24 02:00:00 6.9 17 Oeste 54 Sudoeste 0 -- -- 36
2019-11-24 01:00:00 6.5 23 Sudoeste 54 Sudoeste 0 -- -- 37
2019-11-24 00:00:00 6.6 27 Sudoeste 55 Sudoeste 0 -- -- 46
2019-11-23 23:00:00 6.6 24 Oeste 43 Noroeste 0 -- -- 47
2019-11-23 22:00:00 6.8 23 Oeste 75 Oeste 0 -- -- 50
2019-11-23 21:00:00 6.8 23 Oeste 50 Oeste 0 -- -- 54
2019-11-23 20:00:00 7.3 21 Oeste 50 Noroeste 0 -- -- 55
2019-11-23 19:00:00 6.9 10 Oeste 39 Oeste 0 -- -- 59
2019-11-23 18:00:00 6.6 14 Sudoeste 45 Oeste 0 -- -- 66
2019-11-23 17:00:00 7.1 9 Oeste 22 Oeste 0 -- -- 65
2019-11-23 16:00:00 8.1 4 Noroeste 13 Oeste 0 -- -- 69
2019-11-23 15:00:00 8.6 5 Oeste 23 Sudoeste 0 -- -- 67
2019-11-23 14:00:00 9.5 13 Oeste 23 Sudoeste 0 -- -- 61
2019-11-23 13:00:00 8.2 9 Oeste 20 Noroeste 0 -- -- 69
2019-11-23 12:00:00 8.1 4 Sudoeste 14 Oeste 0 -- -- 77
2019-11-23 11:00:00 4 2 Nordeste 13 Este 0 -- -- 95
2019-11-23 10:00:00 3.1 3 Noroeste 18 Este 0 -- -- 93
2019-11-23 09:00:00 3.3 7 Este 12 Sudeste 0 -- -- 92
2019-11-23 08:00:00 3.8 12 Este 26 Oeste 0 -- -- 88
2019-11-23 07:00:00 4.8 11 Oeste 28 Oeste 0 -- -- 79
2019-11-23 06:00:00 4.6 4 Sur 20 Oeste 0 -- -- 82
2019-11-23 05:00:00 4.8 3 Noroeste 19 Oeste 0 -- -- 86
2019-11-23 04:00:00 5.8 10 Noroeste 19 Noroeste 0 -- -- 90
2019-11-23 03:00:00 7.9 9 Oeste 33 Oeste 0.2 -- -- 85
2019-11-23 02:00:00 6.7 10 Noroeste 22 Oeste 4 -- -- 95
2019-11-23 01:00:00 6.2 8 Norte 23 Este 10.4 -- -- 99
2019-11-23 00:00:00 5.3 3 Sur 8 Sur 6.8 -- -- 97
2019-11-22 23:00:00 5.4 2 Este 12 Oeste 6.6 -- -- 96
2019-11-22 22:00:00 6 4 Oeste 18 Nordeste 6 -- -- 92
2019-11-22 21:00:00 6.7 6 Oeste 36 Oeste 7.4 -- -- 88
2019-11-22 20:00:00 5.4 4 Noroeste 19 Oeste 3.8 -- -- 96
2019-11-22 19:00:00 5 8 Nordeste 18 Oeste 2.8 -- -- 97
2019-11-22 18:00:00 4.8 8 Norte 16 Nordeste 3.8 -- -- 96
2019-11-22 17:00:00 5.2 7 Nordeste 56 Oeste 2.4 -- -- 92
2019-11-22 16:00:00 5.8 13 Oeste 42 Oeste 0.2 -- -- 85
2019-11-22 15:00:00 6 11 Oeste 38 Oeste 0 -- -- 81
2019-11-22 14:00:00 5.7 4 Sudeste 22 Noroeste 0 -- -- 89
2019-11-22 13:00:00 4.9 6 Este 18 Norte 0.4 -- -- 93
2019-11-22 12:00:00 5.3 6 Este 14 Este 0.4 -- -- 85
2019-11-22 11:00:00 5.7 3 Sudeste 12 Sudeste 0 -- -- 72
2019-11-22 10:00:00 5.1 6 Este 8 Este 0 -- -- 74
2019-11-22 09:00:00 2.8 0 Calma 5 Noroeste 0 -- -- 79
2019-11-22 08:00:00 2 0 Calma 6 Noroeste 0 -- -- 78
2019-11-22 07:00:00 1.1 3 Noroeste 6 Este 0 -- -- 80
2019-11-22 06:00:00 0.7 3 Noroeste 5 Noroeste 0 -- -- 79
2019-11-22 05:00:00 0.1 0 Calma 6 Sudoeste 0 -- -- 81
2019-11-22 04:00:00 -0.8 3 Noroeste 9 Este 0 -- -- 82
2019-11-22 03:00:00 0.3 0 Calma 5 Oeste 0 -- -- 77
2019-11-22 02:00:00 0.9 2 Nordeste 8 Noroeste 0 -- -- 75
2019-11-22 01:00:00 1.8 2 Este 6 Sur 0 -- -- 72
2019-11-22 00:00:00 3.7 3 Nordeste 18 Oeste 0 -- -- 68
2019-11-21 23:00:00 1.8 3 Nordeste 13 Noroeste 0 -- -- 77
2019-11-21 22:00:00 3.1 5 Noroeste 14 Noroeste 0 -- -- 70
2019-11-21 21:00:00 1.2 0 Calma 4 Este 0 -- -- 85
2019-11-21 20:00:00 1.9 2 Este 9 Nordeste 0 -- -- 84
2019-11-21 19:00:00 2.7 0 Calma 12 Este 0 -- -- 77
2019-11-21 18:00:00 4.4 2 Nordeste 6 Este 0 -- -- 75
2019-11-21 17:00:00 6.4 3 Noroeste 10 Este 0 -- -- 69
2019-11-21 16:00:00 8.7 4 Sudeste 17 Sudeste 0 -- -- 61
2019-11-21 15:00:00 9.7 7 Sudeste 17 Este 0 -- -- 57
2019-11-21 14:00:00 9.4 7 Sudeste 17 Este 0 -- -- 57
2019-11-21 13:00:00 8.2 7 Este 17 Este 0 -- -- 60
2019-11-21 12:00:00 7.9 7 Este 14 Este 0 -- -- 52
2019-11-21 11:00:00 7.2 5 Sudeste 10 Este 0 -- -- 52
2019-11-21 10:00:00 4.2 5 Sudeste 10 Este 0 -- -- 56
2019-11-21 09:00:00 0.9 4 Este 6 Nordeste 0 -- -- 69
2019-11-21 08:00:00 -0.7 2 Oeste 6 Noroeste 0 -- -- 67
2019-11-21 07:00:00 -0.7 4 Este 7 Este 0 -- -- 65
2019-11-21 06:00:00 -1 3 Este 10 Este 0 -- -- 66
2019-11-21 05:00:00 -1.9 5 Este 14 Este 0 -- -- 66
2019-11-21 04:00:00 -2.6 4 Este 8 Sudoeste 0 -- -- 67
2019-11-21 03:00:00 -3 0 Calma 5 Noroeste 0 -- -- 69
2019-11-21 02:00:00 -2.5 0 Calma 6 Nordeste 0 -- -- 69
2019-11-21 01:00:00 -2.4 2 Oeste 6 Noroeste 0 -- -- 68
2019-11-21 00:00:00 -2 0 Calma 10 Noroeste 0 -- -- 72
2019-11-20 23:00:00 -2.1 2 Noroeste 6 Oeste 0 -- -- 73
2019-11-20 22:00:00 -1.4 2 Oeste 10 Noroeste 0 -- -- 73
2019-11-20 21:00:00 -1 2 Noroeste 9 Noroeste 0 -- -- 74
2019-11-20 20:00:00 -0.2 3 Noroeste 8 Noroeste 0 -- -- 71
2019-11-20 19:00:00 0.6 0 Calma 7 Noroeste 0 -- -- 71
2019-11-20 18:00:00 2.2 5 Noroeste 9 Noroeste 0 -- -- 65
2019-11-20 17:00:00 4.8 0 Calma 8 Sudeste 0 -- -- 61
2019-11-20 16:00:00 7.2 4 Sudeste 12 Sudeste 0 -- -- 54
2019-11-20 15:00:00 7.9 6 Sudeste 19 Este 0 -- -- 51
2019-11-20 14:00:00 7.3 8 Sudeste 14 Sudeste 0 -- -- 51
2019-11-20 13:00:00 5.9 4 Sudeste 14 Este 0 -- -- 54
2019-11-20 12:00:00 5.6 6 Este 11 Este 0 -- -- 52
2019-11-20 11:00:00 3.6 0 Calma 5 Sudeste 0 -- -- 51
2019-11-20 10:00:00 1.3 2 Oeste 5 Noroeste 0 -- -- 55
2019-11-20 09:00:00 -0.9 0 Calma 6 Noroeste 0 -- -- 60
2019-11-20 08:00:00 -3.7 3 Noroeste 6 Noroeste 0 -- -- 68
2019-11-20 07:00:00 -3.2 0 Calma 8 Noroeste 0 -- -- 68
2019-11-20 06:00:00 -3.4 3 Noroeste 6 Noroeste 0 -- -- 71
2019-11-20 05:00:00 -3.2 0 Calma 5 Nordeste 0 -- -- 75
2019-11-20 04:00:00 -2.9 5 Noroeste 9 Noroeste 0 -- -- 74
2019-11-20 03:00:00 -3.1 0 Calma 8 Noroeste 0 -- -- 76
2019-11-20 02:00:00 -2.5 5 Noroeste 9 Noroeste 0 -- -- 75
2019-11-20 01:00:00 -2.7 3 Oeste 8 Oeste 0 -- -- 77
2019-11-20 00:00:00 -2.2 2 Norte 9 Noroeste 0 -- -- 76
2019-11-19 23:00:00 -1.8 7 Noroeste 12 Noroeste 0 -- -- 76
2019-11-19 22:00:00 -1.7 0 Calma 8 Norte 0 -- -- 80
2019-11-19 21:00:00 -1.3 4 Norte 9 Noroeste 0 -- -- 78
2019-11-19 20:00:00 -0.8 3 Noroeste 9 Noroeste 0 -- -- 74
2019-11-19 19:00:00 0.2 3 Noroeste 8 Noroeste 0 -- -- 71
2019-11-19 18:00:00 1.8 3 Norte 9 Noroeste 0 -- -- 67
2019-11-19 17:00:00 3.9 2 Oeste 15 Este 0 -- -- 61
2019-11-19 16:00:00 7.5 11 Este 24 Este 0 -- -- 50
2019-11-19 15:00:00 8.1 12 Este 24 Este 0 -- -- 41
2019-11-19 14:00:00 8.1 13 Este 28 Este 0 -- -- 36
2019-11-19 13:00:00 9.3 11 Este 21 Sudeste 0 -- -- 32
2019-11-19 12:00:00 8.7 10 Este 17 Este 0 -- -- 29
2019-11-19 11:00:00 6.8 4 Este 14 Este 0 -- -- 32
2019-11-19 10:00:00 3.5 10 Este 21 Este 0 -- -- 39
2019-11-19 09:00:00 1.2 5 Este 27 Noroeste 0 -- -- 44
2019-11-19 08:00:00 -0.8 2 Nordeste 24 Noroeste 0 -- -- 48
2019-11-19 07:00:00 0.1 3 Sudoeste 29 Noroeste 0 -- -- 42
2019-11-19 06:00:00 0.1 13 Noroeste 22 Noroeste 0 -- -- 43
2019-11-19 05:00:00 0.3 5 Sudeste 30 Noroeste 0 -- -- 48
2019-11-19 04:00:00 -0.8 3 Este 15 Noroeste 0 -- -- 55
2019-11-19 03:00:00 -1.7 6 Noroeste 12 Noroeste 0 -- -- 57
2019-11-19 02:00:00 -0.7 4 Sudeste 16 Noroeste 0 -- -- 57
2019-11-19 01:00:00 0.2 10 Noroeste 19 Noroeste 0 -- -- 53
2019-11-19 00:00:00 0.2 4 Noroeste 20 Noroeste 0 -- -- 51
2019-11-18 23:00:00 0.7 10 Noroeste 24 Noroeste 0 -- -- 52
2019-11-18 22:00:00 0.8 12 Noroeste 22 Noroeste 0 -- -- 50
2019-11-18 21:00:00 -0.1 6 Noroeste 12 Noroeste 0 -- -- 52
2019-11-18 20:00:00 0.3 2 Este 11 Oeste 0 -- -- 56
2019-11-18 19:00:00 1.5 6 Noroeste 15 Oeste 0 -- -- 51
2019-11-18 18:00:00 3.3 12 Oeste 27 Oeste 0 -- -- 47
2019-11-18 17:00:00 5 6 Oeste 31 Noroeste 0 -- -- 44
2019-11-18 16:00:00 8 9 Oeste 30 Sudoeste 0 -- -- 43
2019-11-18 15:00:00 8.8 14 Sudoeste 28 Sudoeste 0 -- -- 43
2019-11-18 14:00:00 8.3 10 Este 19 Este 0 -- -- 60
2019-11-18 13:00:00 7.6 10 Este 23 Este 0 -- -- 63
2019-11-18 12:00:00 6.8 11 Este 23 Este 0 -- -- 65
2019-11-18 11:00:00 4.9 5 Sudoeste 10 Sudoeste 0 -- -- 71
2019-11-18 10:00:00 2.5 3 Sur 8 Sudoeste 0 -- -- 77
2019-11-18 09:00:00 0.2 3 Sudeste 6 Sudeste 0 -- -- 83
2019-11-18 08:00:00 -2.3 4 Norte 7 Norte 0 -- -- 88
2019-11-18 07:00:00 -2.4 0 Calma 13 Noroeste 0 -- -- 88
2019-11-18 06:00:00 -1.9 8 Noroeste 13 Noroeste 0 -- -- 88
2019-11-18 05:00:00 -2.1 2 Sudoeste 15 Noroeste 0 -- -- 87
2019-11-18 04:00:00 -2.2 5 Noroeste 10 Noroeste 0 -- -- 90
2019-11-18 03:00:00 -2.1 4 Norte 7 Nordeste 0 -- -- 88
2019-11-18 02:00:00 -1.4 2 Norte 14 Noroeste 0 -- -- 86
2019-11-18 01:00:00 -1.3 8 Noroeste 15 Noroeste 0 -- -- 90
2019-11-18 00:00:00 -1.8 3 Noroeste 9 Noroeste 0 -- -- 91
2019-11-17 23:00:00 -1.4 3 Oeste 6 Noroeste 0 -- -- 89
2019-11-17 22:00:00 -0.7 0 Calma 8 Noroeste 0 -- -- 87
2019-11-17 21:00:00 0 7 Noroeste 12 Noroeste 0 -- -- 86
2019-11-17 20:00:00 -0.6 4 Norte 8 Oeste 0 -- -- 88
2019-11-17 19:00:00 0.4 4 Noroeste 8 Noroeste 0 -- -- 82
2019-11-17 18:00:00 2 3 Noroeste 8 Noroeste 0 -- -- 79
2019-11-17 17:00:00 3.8 4 Sudeste 17 Sudeste 0 -- -- 70
2019-11-17 16:00:00 5.1 5 Sudeste 17 Este 0 -- -- 64
2019-11-17 15:00:00 5.8 7 Sudeste 18 Sudeste 0 -- -- 60
2019-11-17 14:00:00 7.9 12 Sudeste 25 Este 0 -- -- 53
2019-11-17 13:00:00 8.9 9 Oeste 23 Oeste 0 -- -- 45
2019-11-17 12:00:00 8.7 10 Oeste 17 Oeste 0 -- -- 47
2019-11-17 11:00:00 7.1 8 Sudeste 25 Noroeste 0 -- -- 56
2019-11-17 10:00:00 4.6 14 Oeste 24 Noroeste 0 -- -- 60
2019-11-17 09:00:00 0.4 2 Noroeste 12 Noroeste 0 -- -- 78
2019-11-17 08:00:00 0.8 9 Noroeste 18 Noroeste 0 -- -- 72
2019-11-17 07:00:00 0.5 13 Noroeste 19 Noroeste 0 -- -- 73
2019-11-17 06:00:00 -2.6 3 Noroeste 8 Este 0 -- -- 85
2019-11-17 05:00:00 -3 4 Noroeste 13 Nordeste 0 -- -- 86
2019-11-17 04:00:00 -3.1 2 Oeste 6 Norte 0 -- -- 85
2019-11-17 03:00:00 -3 3 Noroeste 10 Sudoeste 0 -- -- 86
2019-11-17 02:00:00 -2.6 0 Calma 4 Noroeste 0 -- -- 84
2019-11-17 01:00:00 -2.4 0 Calma 9 Norte 0 -- -- 82
2019-11-17 00:00:00 -2.6 3 Noroeste 9 Noroeste 0 -- -- 84
2019-11-16 23:00:00 -2.1 5 Noroeste 9 Oeste 0 -- -- 80
2019-11-16 22:00:00 -1.6 3 Oeste 10 Noroeste 0 -- -- 78
2019-11-16 21:00:00 -1.1 3 Noroeste 10 Noroeste 0 -- -- 74
2019-11-16 20:00:00 -0.7 8 Noroeste 14 Noroeste 0 -- -- 76
2019-11-16 19:00:00 -0.1 2 Oeste 12 Este 0 -- -- 79
2019-11-16 18:00:00 1.4 5 Nordeste 8 Este 0 -- -- 79
2019-11-16 17:00:00 3.3 2 Oeste 11 Este 0 -- -- 70
2019-11-16 16:00:00 6.6 6 Sudoeste 25 Oeste 0 -- -- 41
2019-11-16 15:00:00 7.6 12 Oeste 29 Oeste 0 -- -- 38
2019-11-16 14:00:00 7.7 12 Sudoeste 27 Oeste 0 -- -- 38
2019-11-16 13:00:00 7 4 Este 13 Este 0 -- -- 50
2019-11-16 12:00:00 5.6 8 Este 15 Este 0 -- -- 56
2019-11-16 11:00:00 3.5 3 Sudoeste 8 Sudeste 0 -- -- 57
2019-11-16 10:00:00 1.5 3 Sudeste 5 Sudeste 0 -- -- 68
2019-11-16 09:00:00 -2.1 0 Calma 9 Noroeste 0 -- -- 71
2019-11-16 08:00:00 -4.5 3 Noroeste 10 Noroeste 0 -- -- 76
2019-11-16 07:00:00 -4.3 7 Oeste 12 Noroeste 0 -- -- 78
2019-11-16 06:00:00 -3.6 8 Noroeste 12 Noroeste 0 -- -- 75
2019-11-16 05:00:00 -3.7 6 Noroeste 13 Noroeste 0 -- -- 82
2019-11-16 04:00:00 -3.7 4 Noroeste 9 Noroeste 0 -- -- 81
2019-11-16 03:00:00 -3.3 5 Noroeste 10 Noroeste 0 -- -- 81
2019-11-16 02:00:00 -3.1 4 Este 8 Este 0 -- -- 86
2019-11-16 01:00:00 -2.3 3 Noroeste 10 Noroeste 0 -- -- 80
2019-11-16 00:00:00 -2.8 5 Este 9 Este 0 -- -- 92
2019-11-15 23:00:00 -2.5 3 Noroeste 9 Noroeste 0 -- -- 92
2019-11-15 22:00:00 -2.1 4 Nordeste 8 Noroeste 0 -- -- 93
2019-11-15 21:00:00 -1.4 3 Norte 9 Norte 0 -- -- 92
2019-11-15 20:00:00 -1.1 3 Nordeste 7 Este 0 -- -- 90
2019-11-15 19:00:00 -0.7 4 Norte 8 Este 0 -- -- 86
2019-11-15 18:00:00 0.8 3 Este 9 Este 0 -- -- 78
2019-11-15 17:00:00 2.5 5 Noroeste 32 Oeste 0 -- -- 63
2019-11-15 16:00:00 3.9 15 Sudoeste 30 Sudoeste 0 -- -- 59
2019-11-15 15:00:00 4.3 14 Oeste 28 Oeste 0 -- -- 59
2019-11-15 14:00:00 5.7 15 Sudoeste 25 Oeste 0 -- -- 57
2019-11-15 13:00:00 5.8 10 Sudoeste 18 Sudoeste 0 -- -- 57
2019-11-15 12:00:00 4.1 4 Sudoeste 8 Sudoeste 0 -- -- 72
2019-11-15 11:00:00 2.7 3 Sudoeste 6 Sudoeste 0 -- -- 72
2019-11-15 10:00:00 0.6 3 Sudeste 5 Sur 0 -- -- 85
2019-11-15 09:00:00 -3.4 3 Noroeste 9 Nordeste 0 -- -- 91
2019-11-15 08:00:00 -4.1 4 Oeste 6 Oeste 0 -- -- 89
2019-11-15 07:00:00 -3.6 3 Noroeste 6 Noroeste 0 -- -- 89
2019-11-15 06:00:00 -3.4 4 Noroeste 14 Noroeste 0 -- -- 89
2019-11-15 05:00:00 -3.9 8 Noroeste 12 Noroeste 0 -- -- 90
2019-11-15 04:00:00 -3.7 0 Calma 8 Noroeste 0 -- -- 91
2019-11-15 03:00:00 -3.2 3 Nordeste 7 Este 0 -- -- 92
2019-11-15 02:00:00 -2.7 3 Norte 12 Noroeste 0 -- -- 88
2019-11-15 01:00:00 -2.5 5 Noroeste 11 Noroeste 0 -- -- 88
2019-11-15 00:00:00 -2 5 Norte 9 Norte 0 -- -- 92
2019-11-14 23:00:00 -1.6 3 Noroeste 8 Noroeste 0 -- -- 93
2019-11-14 22:00:00 -0.9 0 Calma 6 Oeste 0 -- -- 94
2019-11-14 21:00:00 -0.3 2 Norte 6 Norte 0 -- -- 95
2019-11-14 20:00:00 0.5 2 Sudoeste 9 Este 0 -- -- 97
2019-11-14 19:00:00 0.7 4 Este 15 Este 0 -- -- 97
2019-11-14 18:00:00 1 5 Este 12 Este 0 -- -- 95
2019-11-14 17:00:00 2 3 Noroeste 32 Sudoeste 1.6 -- -- 90
2019-11-14 16:00:00 3.5 12 Este 23 Este 0.4 -- -- 93
2019-11-14 15:00:00 3.9 10 Sudeste 18 Este 0 -- -- 93
2019-11-14 14:00:00 4.2 3 Noroeste 15 Este 0 -- -- 90
2019-11-14 13:00:00 3.5 3 Este 22 Oeste 2 -- -- 92
2019-11-14 12:00:00 4.4 0 Calma 10 Sur 2.2 -- -- 95
2019-11-14 11:00:00 4.1 3 Este 12 Este 0.8 -- -- 96
2019-11-14 10:00:00 4 2 Este 6 Sudeste 0.6 -- -- 96
2019-11-14 09:00:00 3.2 0 Calma 9 Sudoeste 0.6 -- -- 96
2019-11-14 08:00:00 2.6 2 Nordeste 10 Nordeste 0 -- -- 96
2019-11-14 07:00:00 2.2 4 Nordeste 21 Noroeste 0.4 -- -- 94
2019-11-14 06:00:00 1.7 6 Norte 17 Noroeste 0 -- -- 94
2019-11-14 05:00:00 1.2 3 Oeste 8 Sudoeste 0 -- -- 88
2019-11-14 04:00:00 0.8 3 Este 5 Noroeste 0 -- -- 86
2019-11-14 03:00:00 0.2 0 Calma 6 Norte 0 -- -- 84
2019-11-14 02:00:00 0.2 4 Oeste 10 Oeste 0 -- -- 82
2019-11-14 01:00:00 0.3 4 Noroeste 9 Noroeste 0 -- -- 75
2019-11-14 00:00:00 -0.4 0 Calma 9 Noroeste 0 -- -- 74
2019-11-13 23:00:00 -0.2 3 Oeste 9 Oeste 0 -- -- 71
2019-11-13 22:00:00 0.5 3 Noroeste 10 Noroeste 0 -- -- 72
2019-11-13 21:00:00 0.8 4 Sudeste 12 Noroeste 0 -- -- 68
2019-11-13 20:00:00 1.7 4 Noroeste 7 Noroeste 0 -- -- 62
2019-11-13 19:00:00 2.9 5 Noroeste 12 Noroeste 0 -- -- 59
2019-11-13 18:00:00 5 0 Calma 22 Este 0 -- -- 77
2019-11-13 17:00:00 7.4 7 Sudeste 26 Oeste 0 -- -- 63
2019-11-13 16:00:00 10.7 20 Sudoeste 36 Sudoeste 0 -- -- 30
2019-11-13 15:00:00 11.4 18 Sudoeste 41 Oeste 0 -- -- 29
2019-11-13 14:00:00 11.1 14 Sudoeste 39 Sudeste 0 -- -- 31
2019-11-13 13:00:00 8.8 9 Este 19 Este 0 -- -- 59
2019-11-13 12:00:00 6.4 5 Sur 12 Sudeste 0 -- -- 65
2019-11-13 11:00:00 5 3 Sudeste 5 Sudeste 0 -- -- 63
2019-11-13 10:00:00 2 2 Oeste 4 Sudoeste 0 -- -- 76
2019-11-13 09:00:00 0.8 3 Este 6 Sudeste 0 -- -- 78
2019-11-13 08:00:00 0.3 3 Este 6 Noroeste 0 -- -- 77
2019-11-13 07:00:00 0.2 3 Norte 10 Noroeste 0 -- -- 77
2019-11-13 06:00:00 0.2 0 Calma 8 Oeste 0 -- -- 78
2019-11-13 05:00:00 0.5 4 Noroeste 13 Noroeste 0 -- -- 74
2019-11-13 04:00:00 0.6 2 Noroeste 10 Noroeste 0 -- -- 74
2019-11-13 03:00:00 1.2 3 Noroeste 13 Oeste 0 -- -- 72
2019-11-13 02:00:00 1.6 5 Oeste 19 Noroeste 0 -- -- 72
2019-11-13 01:00:00 2.8 12 Oeste 19 Noroeste 0 -- -- 66
2019-11-13 00:00:00 3.3 10 Noroeste 17 Noroeste 0 -- -- 64
2019-11-12 23:00:00 3 4 Noroeste 8 Oeste 0 -- -- 67
2019-11-12 22:00:00 4.1 3 Noroeste 12 Noroeste 0 -- -- 63
2019-11-12 21:00:00 5.2 6 Noroeste 11 Noroeste 0 -- -- 59
2019-11-12 20:00:00 5.6 11 Noroeste 20 Noroeste 0 -- -- 56
2019-11-12 19:00:00 6.4 10 Noroeste 21 Noroeste 0 -- -- 51
2019-11-12 18:00:00 6.6 13 Oeste 38 Sudoeste 0 -- -- 50
2019-11-12 17:00:00 8 14 Oeste 49 Oeste 0 -- -- 44
2019-11-12 16:00:00 10.3 19 Oeste 42 Noroeste 0 -- -- 38
2019-11-12 15:00:00 10.3 22 Sudoeste 54 Sudoeste 0 -- -- 37
2019-11-12 14:00:00 10.1 23 Oeste 54 Noroeste 0 -- -- 39
2019-11-12 13:00:00 10.5 13 Noroeste 59 Sudoeste 0 -- -- 35
2019-11-12 12:00:00 10 22 Noroeste 64 Noroeste 0 -- -- 30
2019-11-12 11:00:00 8.7 15 Noroeste 67 Oeste 0 -- -- 32
2019-11-12 10:00:00 7.6 14 Sudoeste 52 Sudoeste 0 -- -- 37
2019-11-12 09:00:00 5 20 Oeste 37 Oeste 0 -- -- 43
2019-11-12 08:00:00 5.3 12 Sudeste 41 Nordeste 0 -- -- 41
2019-11-12 07:00:00 4.1 4 Nordeste 48 Oeste 0 -- -- 46
2019-11-12 06:00:00 4.6 25 Sudoeste 49 Sudoeste 0 -- -- 44
2019-11-12 05:00:00 4.4 15 Oeste 40 Oeste 0 -- -- 45
2019-11-12 04:00:00 4.6 15 Oeste 46 Sudoeste 0 -- -- 44
2019-11-12 03:00:00 4.5 18 Oeste 41 Oeste 0 -- -- 48
2019-11-12 02:00:00 4 5 Noroeste 34 Sudoeste 0 -- -- 55
2019-11-12 01:00:00 4.8 14 Oeste 26 Sudoeste 0 -- -- 52
2019-11-12 00:00:00 4.1 6 Noroeste 23 Sudoeste 0 -- -- 55